sensor_id;sensor_type;location;lat;lon;timestamp;P1;durP1;ratioP1;P2;durP2;ratioP2
6979;SDS011;3530;52.832;10.680;2023-04-09T00:01:24;25.80;;;14.52;;
6979;SDS011;3530;52.832;10.680;2023-04-09T00:04:10;24.52;;;13.77;;
6979;SDS011;3530;52.832;10.680;2023-04-09T00:06:56;27.17;;;14.20;;
6979;SDS011;3530;52.832;10.680;2023-04-09T00:09:41;24.48;;;14.23;;
6979;SDS011;3530;52.832;10.680;2023-04-09T00:12:27;22.45;;;13.25;;
6979;SDS011;3530;52.832;10.680;2023-04-09T00:15:14;22.23;;;14.13;;
6979;SDS011;3530;52.832;10.680;2023-04-09T00:18:00;23.77;;;15.13;;
6979;SDS011;3530;52.832;10.680;2023-04-09T00:20:45;21.00;;;13.48;;
6979;SDS011;3530;52.832;10.680;2023-04-09T00:23:31;23.85;;;14.10;;
6979;SDS011;3530;52.832;10.680;2023-04-09T00:26:17;24.92;;;14.80;;
6979;SDS011;3530;52.832;10.680;2023-04-09T00:29:02;24.05;;;14.02;;
6979;SDS011;3530;52.832;10.680;2023-04-09T00:31:48;24.08;;;14.10;;
6979;SDS011;3530;52.832;10.680;2023-04-09T00:34:34;24.55;;;14.43;;
6979;SDS011;3530;52.832;10.680;2023-04-09T00:37:19;22.23;;;15.32;;
6979;SDS011;3530;52.832;10.680;2023-04-09T00:40:05;23.80;;;14.10;;
6979;SDS011;3530;52.832;10.680;2023-04-09T00:42:51;22.25;;;14.65;;
6979;SDS011;3530;52.832;10.680;2023-04-09T00:45:37;26.08;;;13.90;;
6979;SDS011;3530;52.832;10.680;2023-04-09T00:48:22;26.45;;;15.48;;
6979;SDS011;3530;52.832;10.680;2023-04-09T00:51:08;22.92;;;14.55;;
6979;SDS011;3530;52.832;10.680;2023-04-09T00:53:54;23.92;;;13.57;;
6979;SDS011;3530;52.832;10.680;2023-04-09T00:56:40;25.10;;;14.30;;
6979;SDS011;3530;52.832;10.680;2023-04-09T00:59:26;22.70;;;13.82;;
6979;SDS011;3530;52.832;10.680;2023-04-09T01:02:12;26.75;;;15.45;;
6979;SDS011;3530;52.832;10.680;2023-04-09T01:04:58;30.92;;;16.83;;
6979;SDS011;3530;52.832;10.680;2023-04-09T01:11:15;35.08;;;18.45;;
6979;SDS011;3530;52.832;10.680;2023-04-09T01:14:13;31.20;;;16.30;;
6979;SDS011;3530;52.832;10.680;2023-04-09T01:17:17;31.83;;;16.35;;
6979;SDS011;3530;52.832;10.680;2023-04-09T01:20:13;28.48;;;17.17;;
6979;SDS011;3530;52.832;10.680;2023-04-09T01:26:02;35.70;;;16.00;;
6979;SDS011;3530;52.832;10.680;2023-04-09T01:29:08;27.10;;;16.02;;
6979;SDS011;3530;52.832;10.680;2023-04-09T01:31:55;32.50;;;17.17;;
6979;SDS011;3530;52.832;10.680;2023-04-09T01:34:41;27.77;;;15.63;;
6979;SDS011;3530;52.832;10.680;2023-04-09T01:37:27;36.50;;;16.35;;
6979;SDS011;3530;52.832;10.680;2023-04-09T01:40:13;31.13;;;16.42;;
6979;SDS011;3530;52.832;10.680;2023-04-09T01:42:59;27.48;;;16.98;;
6979;SDS011;3530;52.832;10.680;2023-04-09T01:45:45;28.50;;;16.08;;
6979;SDS011;3530;52.832;10.680;2023-04-09T01:48:31;25.85;;;15.95;;
6979;SDS011;3530;52.832;10.680;2023-04-09T01:51:17;23.05;;;14.82;;
6979;SDS011;3530;52.832;10.680;2023-04-09T01:54:03;25.80;;;15.00;;
6979;SDS011;3530;52.832;10.680;2023-04-09T01:56:49;22.65;;;14.13;;
6979;SDS011;3530;52.832;10.680;2023-04-09T01:59:35;23.55;;;14.15;;
6979;SDS011;3530;52.832;10.680;2023-04-09T02:02:24;25.25;;;14.40;;
6979;SDS011;3530;52.832;10.680;2023-04-09T02:05:14;24.92;;;14.48;;
6979;SDS011;3530;52.832;10.680;2023-04-09T02:08:03;26.42;;;14.25;;
6979;SDS011;3530;52.832;10.680;2023-04-09T02:10:53;23.75;;;13.77;;
6979;SDS011;3530;52.832;10.680;2023-04-09T02:13:41;23.38;;;14.20;;
6979;SDS011;3530;52.832;10.680;2023-04-09T02:16:27;22.85;;;13.95;;
6979;SDS011;3530;52.832;10.680;2023-04-09T02:19:13;23.83;;;13.70;;
6979;SDS011;3530;52.832;10.680;2023-04-09T02:21:59;23.15;;;14.65;;
6979;SDS011;3530;52.832;10.680;2023-04-09T02:24:48;22.60;;;14.45;;
6979;SDS011;3530;52.832;10.680;2023-04-09T02:27:34;22.10;;;14.38;;
6979;SDS011;3530;52.832;10.680;2023-04-09T02:30:20;28.00;;;16.42;;
6979;SDS011;3530;52.832;10.680;2023-04-09T02:33:05;26.80;;;15.07;;
6979;SDS011;3530;52.832;10.680;2023-04-09T02:35:51;28.42;;;16.50;;
6979;SDS011;3530;52.832;10.680;2023-04-09T02:38:39;25.90;;;14.55;;
6979;SDS011;3530;52.832;10.680;2023-04-09T02:41:25;28.77;;;15.82;;
6979;SDS011;3530;52.832;10.680;2023-04-09T02:44:11;26.10;;;15.77;;
6979;SDS011;3530;52.832;10.680;2023-04-09T02:46:57;27.38;;;15.82;;
6979;SDS011;3530;52.832;10.680;2023-04-09T02:49:42;27.73;;;14.98;;
6979;SDS011;3530;52.832;10.680;2023-04-09T02:52:28;27.98;;;15.52;;
6979;SDS011;3530;52.832;10.680;2023-04-09T02:55:14;25.13;;;14.75;;
6979;SDS011;3530;52.832;10.680;2023-04-09T02:57:59;22.45;;;13.52;;
6979;SDS011;3530;52.832;10.680;2023-04-09T03:00:45;25.65;;;14.95;;
6979;SDS011;3530;52.832;10.680;2023-04-09T03:03:31;28.17;;;15.93;;
6979;SDS011;3530;52.832;10.680;2023-04-09T03:06:16;24.73;;;13.25;;
6979;SDS011;3530;52.832;10.680;2023-04-09T03:09:02;27.55;;;14.60;;
6979;SDS011;3530;52.832;10.680;2023-04-09T03:11:48;26.48;;;15.40;;
6979;SDS011;3530;52.832;10.680;2023-04-09T03:14:34;25.75;;;14.98;;
6979;SDS011;3530;52.832;10.680;2023-04-09T03:17:19;22.38;;;14.80;;
6979;SDS011;3530;52.832;10.680;2023-04-09T03:20:08;24.38;;;16.15;;
6979;SDS011;3530;52.832;10.680;2023-04-09T03:22:54;26.90;;;14.85;;
6979;SDS011;3530;52.832;10.680;2023-04-09T03:25:39;22.95;;;14.65;;
6979;SDS011;3530;52.832;10.680;2023-04-09T03:28:25;23.70;;;14.60;;
6979;SDS011;3530;52.832;10.680;2023-04-09T03:31:11;24.52;;;14.82;;
6979;SDS011;3530;52.832;10.680;2023-04-09T03:33:58;25.42;;;14.77;;
6979;SDS011;3530;52.832;10.680;2023-04-09T03:36:43;26.15;;;14.68;;
6979;SDS011;3530;52.832;10.680;2023-04-09T03:39:29;25.80;;;14.70;;
6979;SDS011;3530;52.832;10.680;2023-04-09T03:42:15;24.52;;;14.10;;
6979;SDS011;3530;52.832;10.680;2023-04-09T03:45:01;22.27;;;12.77;;
6979;SDS011;3530;52.832;10.680;2023-04-09T03:47:46;24.15;;;13.93;;
6979;SDS011;3530;52.832;10.680;2023-04-09T03:50:36;21.30;;;13.20;;
6979;SDS011;3530;52.832;10.680;2023-04-09T03:53:25;21.15;;;14.05;;
6979;SDS011;3530;52.832;10.680;2023-04-09T03:56:11;23.70;;;14.15;;
6979;SDS011;3530;52.832;10.680;2023-04-09T03:58:56;20.55;;;14.45;;
6979;SDS011;3530;52.832;10.680;2023-04-09T04:01:42;27.17;;;14.77;;
6979;SDS011;3530;52.832;10.680;2023-04-09T04:04:28;21.42;;;13.20;;
6979;SDS011;3530;52.832;10.680;2023-04-09T04:07:13;23.45;;;14.48;;
6979;SDS011;3530;52.832;10.680;2023-04-09T04:09:59;19.80;;;11.85;;
6979;SDS011;3530;52.832;10.680;2023-04-09T04:12:45;23.48;;;12.88;;
6979;SDS011;3530;52.832;10.680;2023-04-09T04:15:30;18.42;;;13.65;;
6979;SDS011;3530;52.832;10.680;2023-04-09T04:18:16;16.35;;;12.05;;
6979;SDS011;3530;52.832;10.680;2023-04-09T04:21:02;22.08;;;12.35;;
6979;SDS011;3530;52.832;10.680;2023-04-09T04:23:47;21.35;;;12.18;;
6979;SDS011;3530;52.832;10.680;2023-04-09T04:26:33;19.08;;;12.52;;
6979;SDS011;3530;52.832;10.680;2023-04-09T04:29:19;20.40;;;12.38;;
6979;SDS011;3530;52.832;10.680;2023-04-09T04:32:04;20.88;;;12.80;;
6979;SDS011;3530;52.832;10.680;2023-04-09T04:34:50;18.77;;;12.75;;
6979;SDS011;3530;52.832;10.680;2023-04-09T04:37:36;18.25;;;10.98;;
6979;SDS011;3530;52.832;10.680;2023-04-09T04:40:21;15.00;;;10.88;;
6979;SDS011;3530;52.832;10.680;2023-04-09T04:43:07;15.65;;;10.88;;
6979;SDS011;3530;52.832;10.680;2023-04-09T04:45:53;16.35;;;11.07;;
6979;SDS011;3530;52.832;10.680;2023-04-09T04:48:39;14.65;;;8.73;;
6979;SDS011;3530;52.832;10.680;2023-04-09T04:51:25;12.63;;;9.27;;
6979;SDS011;3530;52.832;10.680;2023-04-09T04:54:11;17.73;;;11.07;;
6979;SDS011;3530;52.832;10.680;2023-04-09T04:56:57;16.05;;;10.65;;
6979;SDS011;3530;52.832;10.680;2023-04-09T04:59:43;16.65;;;11.15;;
6979;SDS011;3530;52.832;10.680;2023-04-09T05:02:28;17.27;;;11.32;;
6979;SDS011;3530;52.832;10.680;2023-04-09T05:05:14;18.23;;;11.75;;
6979;SDS011;3530;52.832;10.680;2023-04-09T05:08:00;13.98;;;10.15;;
6979;SDS011;3530;52.832;10.680;2023-04-09T05:10:45;14.00;;;10.73;;
6979;SDS011;3530;52.832;10.680;2023-04-09T05:13:31;16.70;;;10.95;;
6979;SDS011;3530;52.832;10.680;2023-04-09T05:16:17;19.33;;;11.50;;
6979;SDS011;3530;52.832;10.680;2023-04-09T05:19:03;16.25;;;10.40;;
6979;SDS011;3530;52.832;10.680;2023-04-09T05:21:49;18.40;;;11.80;;
6979;SDS011;3530;52.832;10.680;2023-04-09T05:24:34;19.00;;;11.77;;
6979;SDS011;3530;52.832;10.680;2023-04-09T05:27:20;20.50;;;12.35;;
6979;SDS011;3530;52.832;10.680;2023-04-09T05:30:08;18.10;;;11.23;;
6979;SDS011;3530;52.832;10.680;2023-04-09T05:32:54;18.98;;;11.85;;
6979;SDS011;3530;52.832;10.680;2023-04-09T05:35:40;21.42;;;11.85;;
6979;SDS011;3530;52.832;10.680;2023-04-09T05:38:25;21.83;;;12.25;;
6979;SDS011;3530;52.832;10.680;2023-04-09T05:41:11;20.48;;;12.05;;
6979;SDS011;3530;52.832;10.680;2023-04-09T05:43:57;19.90;;;12.13;;
6979;SDS011;3530;52.832;10.680;2023-04-09T05:46:42;19.73;;;12.20;;
6979;SDS011;3530;52.832;10.680;2023-04-09T05:49:28;21.23;;;11.98;;
6979;SDS011;3530;52.832;10.680;2023-04-09T05:52:14;22.75;;;13.82;;
6979;SDS011;3530;52.832;10.680;2023-04-09T05:55:01;19.60;;;12.25;;
6979;SDS011;3530;52.832;10.680;2023-04-09T05:57:46;25.83;;;13.60;;
6979;SDS011;3530;52.832;10.680;2023-04-09T06:00:33;24.42;;;14.65;;
6979;SDS011;3530;52.832;10.680;2023-04-09T06:03:19;25.75;;;14.02;;
6979;SDS011;3530;52.832;10.680;2023-04-09T06:06:04;22.13;;;13.85;;
6979;SDS011;3530;52.832;10.680;2023-04-09T06:08:50;21.17;;;12.32;;
6979;SDS011;3530;52.832;10.680;2023-04-09T06:11:35;16.45;;;12.00;;
6979;SDS011;3530;52.832;10.680;2023-04-09T06:14:21;16.58;;;9.93;;
6979;SDS011;3530;52.832;10.680;2023-04-09T06:17:07;14.55;;;9.52;;
6979;SDS011;3530;52.832;10.680;2023-04-09T06:19:52;14.73;;;11.18;;
6979;SDS011;3530;52.832;10.680;2023-04-09T06:22:38;18.08;;;11.75;;
6979;SDS011;3530;52.832;10.680;2023-04-09T06:25:24;18.02;;;13.07;;
6979;SDS011;3530;52.832;10.680;2023-04-09T06:28:09;19.20;;;10.85;;
6979;SDS011;3530;52.832;10.680;2023-04-09T06:30:56;19.63;;;11.68;;
6979;SDS011;3530;52.832;10.680;2023-04-09T06:33:41;17.25;;;11.50;;
6979;SDS011;3530;52.832;10.680;2023-04-09T06:36:27;19.92;;;11.52;;
6979;SDS011;3530;52.832;10.680;2023-04-09T06:39:14;19.73;;;12.77;;
6979;SDS011;3530;52.832;10.680;2023-04-09T06:42:00;17.85;;;11.85;;
6979;SDS011;3530;52.832;10.680;2023-04-09T06:44:45;25.00;;;12.07;;
6979;SDS011;3530;52.832;10.680;2023-04-09T06:47:31;19.70;;;12.75;;
6979;SDS011;3530;52.832;10.680;2023-04-09T06:50:17;20.73;;;13.93;;
6979;SDS011;3530;52.832;10.680;2023-04-09T06:53:02;24.15;;;14.63;;
6979;SDS011;3530;52.832;10.680;2023-04-09T06:55:48;26.20;;;14.20;;
6979;SDS011;3530;52.832;10.680;2023-04-09T06:58:34;24.52;;;14.25;;
6979;SDS011;3530;52.832;10.680;2023-04-09T07:01:19;22.55;;;13.57;;
6979;SDS011;3530;52.832;10.680;2023-04-09T07:04:05;21.50;;;12.32;;
6979;SDS011;3530;52.832;10.680;2023-04-09T07:06:51;22.52;;;14.60;;
6979;SDS011;3530;52.832;10.680;2023-04-09T07:09:39;24.90;;;13.80;;
6979;SDS011;3530;52.832;10.680;2023-04-09T07:12:28;22.65;;;13.85;;
6979;SDS011;3530;52.832;10.680;2023-04-09T07:15:17;25.08;;;14.75;;
6979;SDS011;3530;52.832;10.680;2023-04-09T07:18:03;21.95;;;13.70;;
6979;SDS011;3530;52.832;10.680;2023-04-09T07:20:48;27.65;;;14.48;;
6979;SDS011;3530;52.832;10.680;2023-04-09T07:23:34;23.75;;;13.65;;
6979;SDS011;3530;52.832;10.680;2023-04-09T07:26:20;25.08;;;14.20;;
6979;SDS011;3530;52.832;10.680;2023-04-09T07:29:07;25.58;;;15.25;;
6979;SDS011;3530;52.832;10.680;2023-04-09T07:31:52;25.52;;;14.02;;
6979;SDS011;3530;52.832;10.680;2023-04-09T07:34:38;27.00;;;15.32;;
6979;SDS011;3530;52.832;10.680;2023-04-09T07:37:24;29.63;;;15.00;;
6979;SDS011;3530;52.832;10.680;2023-04-09T07:40:10;31.25;;;14.82;;
6979;SDS011;3530;52.832;10.680;2023-04-09T07:42:56;22.17;;;14.25;;
6979;SDS011;3530;52.832;10.680;2023-04-09T07:45:42;29.90;;;14.68;;
6979;SDS011;3530;52.832;10.680;2023-04-09T07:48:28;26.98;;;15.65;;
6979;SDS011;3530;52.832;10.680;2023-04-09T07:51:14;27.75;;;13.68;;
6979;SDS011;3530;52.832;10.680;2023-04-09T07:54:00;31.35;;;15.88;;
6979;SDS011;3530;52.832;10.680;2023-04-09T07:56:46;21.58;;;13.45;;
6979;SDS011;3530;52.832;10.680;2023-04-09T07:59:33;25.02;;;14.73;;
6979;SDS011;3530;52.832;10.680;2023-04-09T08:02:18;25.00;;;14.07;;
6979;SDS011;3530;52.832;10.680;2023-04-09T08:05:04;28.40;;;14.93;;
6979;SDS011;3530;52.832;10.680;2023-04-09T08:07:50;24.75;;;15.02;;
6979;SDS011;3530;52.832;10.680;2023-04-09T08:10:37;25.48;;;14.95;;
6979;SDS011;3530;52.832;10.680;2023-04-09T08:13:23;22.98;;;13.88;;
6979;SDS011;3530;52.832;10.680;2023-04-09T08:16:11;29.27;;;14.80;;
6979;SDS011;3530;52.832;10.680;2023-04-09T08:18:57;24.27;;;14.50;;
6979;SDS011;3530;52.832;10.680;2023-04-09T08:21:42;25.00;;;13.82;;
6979;SDS011;3530;52.832;10.680;2023-04-09T08:24:28;31.90;;;25.25;;
6979;SDS011;3530;52.832;10.680;2023-04-09T08:27:14;26.60;;;16.63;;
6979;SDS011;3530;52.832;10.680;2023-04-09T08:30:00;22.42;;;13.63;;
6979;SDS011;3530;52.832;10.680;2023-04-09T08:32:46;24.55;;;15.48;;
6979;SDS011;3530;52.832;10.680;2023-04-09T08:35:32;25.02;;;14.73;;
6979;SDS011;3530;52.832;10.680;2023-04-09T08:38:18;25.95;;;16.40;;
6979;SDS011;3530;52.832;10.680;2023-04-09T08:41:04;27.52;;;15.98;;
6979;SDS011;3530;52.832;10.680;2023-04-09T08:43:50;26.25;;;14.93;;
6979;SDS011;3530;52.832;10.680;2023-04-09T08:46:37;23.10;;;13.82;;
6979;SDS011;3530;52.832;10.680;2023-04-09T08:49:22;26.08;;;13.85;;
6979;SDS011;3530;52.832;10.680;2023-04-09T08:52:08;22.02;;;13.82;;
6979;SDS011;3530;52.832;10.680;2023-04-09T08:54:54;20.60;;;13.43;;
6979;SDS011;3530;52.832;10.680;2023-04-09T08:57:40;21.15;;;13.98;;
6979;SDS011;3530;52.832;10.680;2023-04-09T09:00:26;24.40;;;14.77;;
6979;SDS011;3530;52.832;10.680;2023-04-09T09:03:12;25.48;;;14.48;;
6979;SDS011;3530;52.832;10.680;2023-04-09T09:05:58;22.58;;;13.65;;
6979;SDS011;3530;52.832;10.680;2023-04-09T09:08:43;25.15;;;14.80;;
6979;SDS011;3530;52.832;10.680;2023-04-09T09:11:29;29.45;;;13.55;;
6979;SDS011;3530;52.832;10.680;2023-04-09T09:14:16;22.83;;;15.00;;
6979;SDS011;3530;52.832;10.680;2023-04-09T09:17:03;27.40;;;15.15;;
6979;SDS011;3530;52.832;10.680;2023-04-09T09:19:49;23.38;;;15.48;;
6979;SDS011;3530;52.832;10.680;2023-04-09T09:22:52;24.92;;;15.73;;
6979;SDS011;3530;52.832;10.680;2023-04-09T09:25:39;24.05;;;14.75;;
6979;SDS011;3530;52.832;10.680;2023-04-09T09:28:26;24.83;;;14.85;;
6979;SDS011;3530;52.832;10.680;2023-04-09T09:31:19;22.90;;;14.82;;
6979;SDS011;3530;52.832;10.680;2023-04-09T09:34:09;24.48;;;15.32;;
6979;SDS011;3530;52.832;10.680;2023-04-09T09:36:54;25.10;;;14.15;;
6979;SDS011;3530;52.832;10.680;2023-04-09T09:39:43;21.05;;;10.98;;
6979;SDS011;3530;52.832;10.680;2023-04-09T09:42:29;23.48;;;14.40;;
6979;SDS011;3530;52.832;10.680;2023-04-09T09:45:16;19.45;;;12.23;;
6979;SDS011;3530;52.832;10.680;2023-04-09T09:48:03;23.00;;;14.55;;
6979;SDS011;3530;52.832;10.680;2023-04-09T09:50:49;22.60;;;14.95;;
6979;SDS011;3530;52.832;10.680;2023-04-09T09:53:36;23.58;;;13.93;;
6979;SDS011;3530;52.832;10.680;2023-04-09T09:56:23;22.35;;;13.75;;
6979;SDS011;3530;52.832;10.680;2023-04-09T09:59:20;23.33;;;13.20;;
6979;SDS011;3530;52.832;10.680;2023-04-09T10:02:10;21.67;;;13.77;;
6979;SDS011;3530;52.832;10.680;2023-04-09T10:04:59;22.70;;;13.13;;
6979;SDS011;3530;52.832;10.680;2023-04-09T10:07:45;24.83;;;14.35;;
6979;SDS011;3530;52.832;10.680;2023-04-09T10:10:33;27.67;;;12.75;;
6979;SDS011;3530;52.832;10.680;2023-04-09T10:13:28;23.92;;;14.50;;
6979;SDS011;3530;52.832;10.680;2023-04-09T10:16:16;22.08;;;12.75;;
6979;SDS011;3530;52.832;10.680;2023-04-09T10:19:03;22.80;;;13.25;;
6979;SDS011;3530;52.832;10.680;2023-04-09T10:21:51;23.42;;;13.60;;
6979;SDS011;3530;52.832;10.680;2023-04-09T10:24:38;24.73;;;14.52;;
6979;SDS011;3530;52.832;10.680;2023-04-09T10:27:25;26.58;;;15.43;;
6979;SDS011;3530;52.832;10.680;2023-04-09T10:30:30;20.88;;;12.60;;
6979;SDS011;3530;52.832;10.680;2023-04-09T10:33:21;25.10;;;14.85;;
6979;SDS011;3530;52.832;10.680;2023-04-09T10:36:11;24.00;;;14.60;;
6979;SDS011;3530;52.832;10.680;2023-04-09T10:38:57;23.60;;;14.98;;
6979;SDS011;3530;52.832;10.680;2023-04-09T10:41:42;24.20;;;14.30;;
6979;SDS011;3530;52.832;10.680;2023-04-09T10:44:29;25.67;;;15.93;;
6979;SDS011;3530;52.832;10.680;2023-04-09T10:47:29;23.10;;;14.80;;
6979;SDS011;3530;52.832;10.680;2023-04-09T10:50:20;21.50;;;13.65;;
6979;SDS011;3530;52.832;10.680;2023-04-09T10:53:19;20.45;;;13.70;;
6979;SDS011;3530;52.832;10.680;2023-04-09T10:56:13;23.38;;;14.52;;
6979;SDS011;3530;52.832;10.680;2023-04-09T10:58:59;19.33;;;12.45;;
6979;SDS011;3530;52.832;10.680;2023-04-09T11:01:51;21.58;;;12.82;;
6979;SDS011;3530;52.832;10.680;2023-04-09T11:04:40;23.58;;;14.90;;
6979;SDS011;3530;52.832;10.680;2023-04-09T11:07:52;20.83;;;14.32;;
6979;SDS011;3530;52.832;10.680;2023-04-09T11:10:40;22.70;;;14.00;;
6979;SDS011;3530;52.832;10.680;2023-04-09T11:13:30;21.67;;;13.40;;
6979;SDS011;3530;52.832;10.680;2023-04-09T11:16:16;25.35;;;13.45;;
6979;SDS011;3530;52.832;10.680;2023-04-09T11:19:04;25.58;;;13.80;;
6979;SDS011;3530;52.832;10.680;2023-04-09T11:21:49;24.63;;;15.07;;
6979;SDS011;3530;52.832;10.680;2023-04-09T11:24:41;18.83;;;9.77;;
6979;SDS011;3530;52.832;10.680;2023-04-09T11:27:27;25.77;;;14.80;;
6979;SDS011;3530;52.832;10.680;2023-04-09T11:30:13;21.08;;;12.40;;
6979;SDS011;3530;52.832;10.680;2023-04-09T11:32:59;20.73;;;13.57;;
6979;SDS011;3530;52.832;10.680;2023-04-09T11:35:46;24.15;;;13.80;;
6979;SDS011;3530;52.832;10.680;2023-04-09T11:38:32;20.13;;;12.15;;
6979;SDS011;3530;52.832;10.680;2023-04-09T11:41:17;18.23;;;11.90;;
6979;SDS011;3530;52.832;10.680;2023-04-09T11:44:03;21.10;;;13.95;;
6979;SDS011;3530;52.832;10.680;2023-04-09T11:46:50;24.60;;;14.65;;
6979;SDS011;3530;52.832;10.680;2023-04-09T11:49:36;26.00;;;14.40;;
6979;SDS011;3530;52.832;10.680;2023-04-09T11:52:21;22.00;;;12.20;;
6979;SDS011;3530;52.832;10.680;2023-04-09T11:55:08;18.60;;;11.02;;
6979;SDS011;3530;52.832;10.680;2023-04-09T11:57:58;23.40;;;13.85;;
6979;SDS011;3530;52.832;10.680;2023-04-09T12:00:47;17.58;;;11.57;;
6979;SDS011;3530;52.832;10.680;2023-04-09T12:03:33;25.67;;;12.95;;
6979;SDS011;3530;52.832;10.680;2023-04-09T12:06:21;21.85;;;14.77;;
6979;SDS011;3530;52.832;10.680;2023-04-09T12:09:09;22.35;;;14.65;;
6979;SDS011;3530;52.832;10.680;2023-04-09T12:11:58;23.73;;;15.23;;
6979;SDS011;3530;52.832;10.680;2023-04-09T12:14:44;25.23;;;14.63;;
6979;SDS011;3530;52.832;10.680;2023-04-09T12:17:31;22.98;;;11.10;;
6979;SDS011;3530;52.832;10.680;2023-04-09T12:20:25;27.17;;;16.45;;
6979;SDS011;3530;52.832;10.680;2023-04-09T12:23:12;20.25;;;12.32;;
6979;SDS011;3530;52.832;10.680;2023-04-09T12:25:58;25.02;;;15.30;;
6979;SDS011;3530;52.832;10.680;2023-04-09T12:28:47;27.50;;;14.57;;
6979;SDS011;3530;52.832;10.680;2023-04-09T12:31:32;22.13;;;13.15;;
6979;SDS011;3530;52.832;10.680;2023-04-09T12:34:18;22.23;;;13.45;;
6979;SDS011;3530;52.832;10.680;2023-04-09T12:37:04;23.42;;;14.35;;
6979;SDS011;3530;52.832;10.680;2023-04-09T12:39:50;24.60;;;14.65;;
6979;SDS011;3530;52.832;10.680;2023-04-09T12:42:35;25.17;;;15.35;;
6979;SDS011;3530;52.832;10.680;2023-04-09T12:45:21;22.58;;;13.85;;
6979;SDS011;3530;52.832;10.680;2023-04-09T12:48:07;19.73;;;11.98;;
6979;SDS011;3530;52.832;10.680;2023-04-09T12:50:52;24.65;;;14.82;;
6979;SDS011;3530;52.832;10.680;2023-04-09T12:53:38;25.70;;;14.82;;
6979;SDS011;3530;52.832;10.680;2023-04-09T12:56:24;21.15;;;13.43;;
6979;SDS011;3530;52.832;10.680;2023-04-09T12:59:09;20.38;;;13.75;;
6979;SDS011;3530;52.832;10.680;2023-04-09T13:01:55;21.85;;;13.70;;
6979;SDS011;3530;52.832;10.680;2023-04-09T13:04:41;20.80;;;14.07;;
6979;SDS011;3530;52.832;10.680;2023-04-09T13:07:27;25.13;;;15.43;;
6979;SDS011;3530;52.832;10.680;2023-04-09T13:10:13;20.42;;;13.27;;
6979;SDS011;3530;52.832;10.680;2023-04-09T13:12:59;19.13;;;11.85;;
6979;SDS011;3530;52.832;10.680;2023-04-09T13:15:45;27.85;;;13.43;;
6979;SDS011;3530;52.832;10.680;2023-04-09T13:18:30;26.90;;;15.55;;
6979;SDS011;3530;52.832;10.680;2023-04-09T13:21:16;21.17;;;13.82;;
6979;SDS011;3530;52.832;10.680;2023-04-09T13:24:03;25.23;;;15.85;;
6979;SDS011;3530;52.832;10.680;2023-04-09T13:26:48;23.95;;;15.63;;
6979;SDS011;3530;52.832;10.680;2023-04-09T13:29:34;26.05;;;14.27;;
6979;SDS011;3530;52.832;10.680;2023-04-09T13:32:20;25.48;;;16.20;;
6979;SDS011;3530;52.832;10.680;2023-04-09T13:35:07;24.40;;;14.90;;
6979;SDS011;3530;52.832;10.680;2023-04-09T13:37:54;23.02;;;14.82;;
6979;SDS011;3530;52.832;10.680;2023-04-09T13:40:40;22.77;;;14.30;;
6979;SDS011;3530;52.832;10.680;2023-04-09T13:43:25;27.42;;;18.15;;
6979;SDS011;3530;52.832;10.680;2023-04-09T13:46:13;24.77;;;15.90;;
6979;SDS011;3530;52.832;10.680;2023-04-09T13:48:59;21.38;;;14.18;;
6979;SDS011;3530;52.832;10.680;2023-04-09T13:51:45;21.85;;;14.30;;
6979;SDS011;3530;52.832;10.680;2023-04-09T13:54:31;20.80;;;13.40;;
6979;SDS011;3530;52.832;10.680;2023-04-09T13:57:18;25.50;;;16.48;;
6979;SDS011;3530;52.832;10.680;2023-04-09T14:00:03;20.92;;;13.98;;
6979;SDS011;3530;52.832;10.680;2023-04-09T14:02:50;23.15;;;12.68;;
6979;SDS011;3530;52.832;10.680;2023-04-09T14:05:35;22.55;;;14.50;;
6979;SDS011;3530;52.832;10.680;2023-04-09T14:08:21;18.90;;;12.20;;
6979;SDS011;3530;52.832;10.680;2023-04-09T14:11:07;24.05;;;14.77;;
6979;SDS011;3530;52.832;10.680;2023-04-09T14:13:53;18.50;;;12.73;;
6979;SDS011;3530;52.832;10.680;2023-04-09T14:16:39;22.55;;;13.52;;
6979;SDS011;3530;52.832;10.680;2023-04-09T14:19:24;19.90;;;12.35;;
6979;SDS011;3530;52.832;10.680;2023-04-09T14:22:10;18.95;;;13.13;;
6979;SDS011;3530;52.832;10.680;2023-04-09T14:24:56;25.45;;;15.35;;
6979;SDS011;3530;52.832;10.680;2023-04-09T14:27:43;27.63;;;15.07;;
6979;SDS011;3530;52.832;10.680;2023-04-09T14:30:29;23.17;;;15.27;;
6979;SDS011;3530;52.832;10.680;2023-04-09T14:33:15;23.10;;;14.02;;
6979;SDS011;3530;52.832;10.680;2023-04-09T14:36:00;23.40;;;14.70;;
6979;SDS011;3530;52.832;10.680;2023-04-09T14:38:46;25.23;;;15.65;;
6979;SDS011;3530;52.832;10.680;2023-04-09T14:41:33;23.90;;;15.20;;
6979;SDS011;3530;52.832;10.680;2023-04-09T14:44:20;24.73;;;15.98;;
6979;SDS011;3530;52.832;10.680;2023-04-09T14:47:06;22.20;;;14.23;;
6979;SDS011;3530;52.832;10.680;2023-04-09T14:49:52;18.08;;;11.52;;
6979;SDS011;3530;52.832;10.680;2023-04-09T14:52:37;20.15;;;13.25;;
6979;SDS011;3530;52.832;10.680;2023-04-09T14:55:23;23.00;;;15.43;;
6979;SDS011;3530;52.832;10.680;2023-04-09T14:58:10;20.33;;;13.63;;
6979;SDS011;3530;52.832;10.680;2023-04-09T15:00:56;20.33;;;14.07;;
6979;SDS011;3530;52.832;10.680;2023-04-09T15:03:41;21.52;;;14.80;;
6979;SDS011;3530;52.832;10.680;2023-04-09T15:06:28;23.08;;;15.68;;
6979;SDS011;3530;52.832;10.680;2023-04-09T15:09:16;25.33;;;15.90;;
6979;SDS011;3530;52.832;10.680;2023-04-09T15:12:02;21.90;;;15.13;;
6979;SDS011;3530;52.832;10.680;2023-04-09T15:14:48;22.08;;;14.85;;
6979;SDS011;3530;52.832;10.680;2023-04-09T15:17:33;16.27;;;11.20;;
6979;SDS011;3530;52.832;10.680;2023-04-09T15:20:19;23.08;;;14.15;;
6979;SDS011;3530;52.832;10.680;2023-04-09T15:23:05;22.85;;;14.65;;
6979;SDS011;3530;52.832;10.680;2023-04-09T15:25:51;21.73;;;14.40;;
6979;SDS011;3530;52.832;10.680;2023-04-09T15:28:36;22.83;;;15.40;;
6979;SDS011;3530;52.832;10.680;2023-04-09T15:31:22;23.75;;;14.93;;
6979;SDS011;3530;52.832;10.680;2023-04-09T15:34:07;24.35;;;14.80;;
6979;SDS011;3530;52.832;10.680;2023-04-09T15:36:53;21.90;;;14.02;;
6979;SDS011;3530;52.832;10.680;2023-04-09T15:39:39;20.75;;;14.27;;
6979;SDS011;3530;52.832;10.680;2023-04-09T15:42:24;23.10;;;13.60;;
6979;SDS011;3530;52.832;10.680;2023-04-09T15:45:11;23.05;;;14.95;;
6979;SDS011;3530;52.832;10.680;2023-04-09T15:47:58;22.58;;;14.75;;
6979;SDS011;3530;52.832;10.680;2023-04-09T15:50:44;19.90;;;12.25;;
6979;SDS011;3530;52.832;10.680;2023-04-09T15:53:30;21.20;;;14.15;;
6979;SDS011;3530;52.832;10.680;2023-04-09T15:56:16;20.58;;;14.05;;
6979;SDS011;3530;52.832;10.680;2023-04-09T15:59:02;24.38;;;14.40;;
6979;SDS011;3530;52.832;10.680;2023-04-09T16:01:49;24.00;;;15.50;;
6979;SDS011;3530;52.832;10.680;2023-04-09T16:04:36;23.52;;;14.98;;
6979;SDS011;3530;52.832;10.680;2023-04-09T16:07:22;20.08;;;14.45;;
6979;SDS011;3530;52.832;10.680;2023-04-09T16:10:07;20.77;;;13.45;;
6979;SDS011;3530;52.832;10.680;2023-04-09T16:12:53;24.52;;;14.68;;
6979;SDS011;3530;52.832;10.680;2023-04-09T16:15:39;20.65;;;14.32;;
6979;SDS011;3530;52.832;10.680;2023-04-09T16:18:25;20.48;;;13.25;;
6979;SDS011;3530;52.832;10.680;2023-04-09T16:21:11;20.77;;;13.80;;
6979;SDS011;3530;52.832;10.680;2023-04-09T16:23:56;25.98;;;14.55;;
6979;SDS011;3530;52.832;10.680;2023-04-09T16:26:42;20.23;;;14.40;;
6979;SDS011;3530;52.832;10.680;2023-04-09T16:29:29;22.13;;;14.15;;
6979;SDS011;3530;52.832;10.680;2023-04-09T16:32:15;19.15;;;13.77;;
6979;SDS011;3530;52.832;10.680;2023-04-09T16:35:01;19.05;;;12.85;;
6979;SDS011;3530;52.832;10.680;2023-04-09T16:37:46;22.48;;;13.80;;